Terminal Aerodrome Forecast
Issued by NWS

Home | Current Version | Previous Version | Text Only | Print | Product List | Glossary On
Versions: 1 2 3 4 5 6 7 8 9 10 11 12 13
616
FTUS44 KSJT 232338
TAFBBD
TAF
KBBD 232338Z 2400/2424 14011KT P6SM FEW050 SCT250
     FM240900 14011KT P6SM BKN012
     FM241800 14011KT P6SM SCT040 BKN100
      AMD NOT SKED=

USA.gov is the U.S. government's official web portal to all federal, state and local government web resources and services.